Terminal Aerodrome Forecast
Issued by NWS Pittsburgh, PA

Home | Current Version | Previous Version | Text Only | Print | Product List | Glossary On
Versions: 1 2 3 4 5 6 7 8 9 10 11 12 13 14 15 16 17 18 19 20 21 22 23 24 25 26 27
287
FTUS41 KPBZ 252114 AAB
TAFPIT
TAF AMD
KPIT 252114Z 2521/2624 31010KT P6SM SCT007 BKN015
      TEMPO 2521/2524 32010G20KT 4SM -SHRA BKN007
     FM260400 29004KT P6SM BKN025
     FM261500 30006KT P6SM SKC=

USA.gov is the U.S. government's official web portal to all federal, state and local government web resources and services.